Time;durP1;ratioP1;P1;durP2;ratioP2;P2;SDS_P1;SDS_P2;PMS_P1;PMS_P2;Temp;Humidity;BMP_temperature;BMP_pressure;BME280_temperature;BME280_humidity;BME280_pressure;Samples;Min_cycle;Max_cycle;Signal;HPM_P1;HPM_P2
2023/04/29 00:01:29;;;;;;;12.15;3.88;;;;;;;12.36;42.10;100796.06;4995943;28;20061;-87
2023/04/29 00:03:55;;;;;;;6.57;4.50;;;;;;;12.53;42.07;100817.91;5001018;28;20026;-87
2023/04/29 00:06:21;;;;;;;11.43;4.90;;;;;;;12.62;42.66;100832.44;5010708;28;20030;-93
2023/04/29 00:08:46;;;;;;;9.60;3.67;;;;;;;12.37;42.51;100795.09;5017277;28;20034;-93
2023/04/29 00:11:12;;;;;;;15.43;4.43;;;;;;;12.56;42.53;100827.59;5016941;28;20065;-92
2023/04/29 00:13:40;;;;;;;16.08;3.90;;;;;;;12.43;42.67;100810.72;5016454;28;20033;-90
2023/04/29 00:16:07;;;;;;;6.88;3.88;;;;;;;12.42;42.59;100809.00;5016713;28;20034;-90
2023/04/29 00:18:33;;;;;;;13.35;4.32;;;;;;;12.32;42.61;100791.94;5018572;28;20053;-87
2023/04/29 00:20:58;;;;;;;11.20;4.00;;;;;;;12.42;42.46;100800.91;5019359;28;20043;-86
2023/04/29 00:23:24;;;;;;;13.60;4.47;;;;;;;12.46;42.48;100814.03;5004255;28;20100;-87
2023/04/29 00:25:52;;;;;;;15.25;4.03;;;;;;;12.37;42.36;100787.00;4998569;28;20037;-86
2023/04/29 00:28:17;;;;;;;7.75;3.35;;;;;;;12.55;42.41;100824.03;5012666;28;20035;-87
2023/04/29 00:30:43;;;;;;;8.35;3.95;;;;;;;12.43;42.53;100795.41;5015085;28;20057;-92
2023/04/29 00:33:08;;;;;;;10.13;4.32;;;;;;;12.48;42.59;100814.75;5000663;28;20104;-88
2023/04/29 00:35:34;;;;;;;12.13;4.40;;;;;;;12.52;42.58;100807.25;4973594;28;20118;-88
2023/04/29 00:37:59;;;;;;;12.43;4.22;;;;;;;12.51;42.68;100800.13;4972876;28;20035;-87
2023/04/29 00:40:27;;;;;;;11.85;3.72;;;;;;;12.40;42.81;100782.19;4973808;28;20110;-87
2023/04/29 00:42:52;;;;;;;8.73;4.20;;;;;;;12.45;42.97;100803.34;4973819;28;20113;-88
2023/04/29 00:45:18;;;;;;;7.70;3.70;;;;;;;12.39;42.90;100802.03;4972986;28;20119;-87
2023/04/29 00:47:43;;;;;;;8.98;4.00;;;;;;;12.58;43.05;100831.00;4983506;28;20030;-88
2023/04/29 00:50:09;;;;;;;8.35;4.30;;;;;;;12.49;43.03;100827.25;4988980;28;20051;-88
2023/04/29 00:52:38;;;;;;;7.50;4.43;;;;;;;12.37;43.35;100811.25;4989193;28;20043;-88
2023/04/29 00:55:05;;;;;;;5.50;3.97;;;;;;;12.52;43.13;100836.91;4989022;28;20095;-85
2023/04/29 00:57:33;;;;;;;10.02;4.35;;;;;;;12.35;43.40;100807.84;4992926;28;20114;-85
2023/04/29 00:59:59;;;;;;;12.18;3.88;;;;;;;12.44;43.26;100823.25;4995204;28;20058;-93
2023/04/29 01:02:25;;;;;;;15.10;5.13;;;;;;;12.39;43.46;100820.06;4990497;28;20100;-85
2023/04/29 01:04:51;;;;;;;16.27;4.65;;;;;;;12.26;43.29;100792.47;4986869;28;20138;-91
2023/04/29 01:07:22;;;;;;;12.10;4.28;;;;;;;12.39;43.59;100820.06;5011237;28;20051;-90
2023/04/29 01:10:09;;;;;;;11.70;4.85;;;;;;;12.42;43.18;100828.75;5013721;28;20082;-88
2023/04/29 01:13:00;;;;;;;11.65;5.28;;;;;;;12.29;43.56;100813.78;5014198;28;20041;-91
2023/04/29 01:15:38;;;;;;;22.20;4.47;;;;;;;12.37;43.41;100822.06;5010857;28;20502;-86
2023/04/29 01:18:44;;;;;;;10.90;4.45;;;;;;;12.40;43.24;100837.97;5001858;28;20122;-88
2023/04/29 01:21:09;;;;;;;8.85;4.38;;;;;;;12.18;43.50;100809.28;4993898;28;20043;-87
2023/04/29 01:23:35;;;;;;;14.15;4.32;;;;;;;12.05;43.50;100794.28;4981249;28;20041;-90
2023/04/29 01:26:01;;;;;;;13.45;4.78;;;;;;;11.97;43.41;100793.09;4993964;28;20093;-87
2023/04/29 01:28:44;;;;;;;13.32;4.35;;;;;;;11.95;43.71;100822.03;4992141;28;20030;-86
2023/04/29 01:31:18;;;;;;;13.27;5.43;;;;;;;11.63;44.34;100788.78;4972069;28;20414;-88
2023/04/29 01:33:47;;;;;;;22.20;4.63;;;;;;;11.60;44.22;100788.19;4972193;28;20034;-85
2023/04/29 01:36:52;;;;;;;8.18;4.07;;;;;;;11.69;44.12;100823.28;4971707;28;20428;-87
2023/04/29 01:39:36;;;;;;;11.07;4.28;;;;;;;11.61;44.13;100828.47;4971544;28;20516;-86
2023/04/29 01:42:10;;;;;;;7.88;4.32;;;;;;;11.56;44.41;100829.84;4971480;28;20030;-86
2023/04/29 01:44:37;;;;;;;10.32;4.35;;;;;;;11.52;44.64;100833.75;4971878;28;20042;-86
2023/04/29 01:47:03;;;;;;;8.07;4.78;;;;;;;11.22;44.71;100789.47;4972077;28;20105;-87
2023/04/29 01:49:29;;;;;;;16.60;3.88;;;;;;;11.27;45.22;100799.91;4972233;28;20042;-89
2023/04/29 01:51:55;;;;;;;12.70;3.78;;;;;;;11.28;44.88;100805.13;4971698;28;20042;-88
2023/04/29 01:54:21;;;;;;;9.15;4.43;;;;;;;11.40;45.09;100832.94;4971388;28;20569;-88
2023/04/29 01:56:47;;;;;;;11.57;3.67;;;;;;;11.37;45.03;100830.47;4973716;28;20611;-87
2023/04/29 01:59:14;;;;;;;8.55;4.55;;;;;;;11.16;44.99;100799.91;4993173;28;20030;-86
2023/04/29 02:01:39;;;;;;;11.30;4.47;;;;;;;11.23;45.20;100819.97;4994293;28;20046;-87
2023/04/29 02:04:04;;;;;;;6.85;4.15;;;;;;;11.19;45.19;100815.81;4990262;28;20730;-87
2023/04/29 02:06:33;;;;;;;8.25;4.40;;;;;;;11.17;45.13;100821.31;4991100;28;20123;-87
2023/04/29 02:08:58;;;;;;;12.40;5.80;;;;;;;11.11;45.18;100796.72;4991540;28;20444;-88
2023/04/29 02:11:24;;;;;;;10.02;4.43;;;;;;;11.17;45.32;100828.53;4991319;28;20026;-89
2023/04/29 02:13:49;;;;;;;13.48;4.50;;;;;;;11.12;44.92;100825.38;4991679;28;20034;-88
2023/04/29 02:16:15;;;;;;;11.23;4.88;;;;;;;11.05;45.08;100818.75;4993732;28;20093;-87
2023/04/29 02:18:41;;;;;;;14.75;4.28;;;;;;;10.96;45.24;100803.34;4993723;28;20034;-87
2023/04/29 02:21:07;;;;;;;9.80;4.55;;;;;;;11.09;45.36;100809.47;5005320;28;20043;-92
2023/04/29 02:23:33;;;;;;;11.73;5.53;;;;;;;11.06;45.15;100809.72;5008789;28;20313;-84
2023/04/29 02:26:00;;;;;;;14.57;4.60;;;;;;;11.04;45.28;100822.44;5003778;28;20031;-86
2023/04/29 02:28:26;;;;;;;19.42;4.40;;;;;;;10.85;45.49;100785.38;5002993;28;20030;-89
2023/04/29 02:30:51;;;;;;;19.55;4.57;;;;;;;10.97;45.68;100816.69;4989139;28;20136;-82
2023/04/29 02:33:19;;;;;;;15.75;4.82;;;;;;;11.00;45.50;100832.59;5010049;28;20030;-87
2023/04/29 02:35:45;;;;;;;11.27;5.10;;;;;;;10.96;45.46;100824.88;5007210;28;20038;-88
2023/04/29 02:38:11;;;;;;;14.93;4.97;;;;;;;10.83;45.94;100809.72;5009760;28;20030;-87
2023/04/29 02:40:44;;;;;;;9.60;4.55;;;;;;;10.82;45.32;100797.22;5016939;28;20366;-86
2023/04/29 02:43:10;;;;;;;10.13;4.50;;;;;;;10.75;45.60;100809.47;4993146;28;20116;-86
2023/04/29 02:45:37;;;;;;;11.90;5.45;;;;;;;10.59;45.67;100792.81;4992252;28;20038;-85
2023/04/29 02:48:03;;;;;;;10.48;4.65;;;;;;;10.65;45.58;100805.78;4992811;28;20033;-86
2023/04/29 02:50:29;;;;;;;16.83;4.90;;;;;;;10.66;46.03;100806.66;4991212;28;20137;-86
2023/04/29 02:52:54;;;;;;;13.82;4.68;;;;;;;10.67;45.93;100827.19;4990164;28;20034;-87
2023/04/29 02:55:20;;;;;;;11.20;5.25;;;;;;;10.58;46.10;100803.72;4988538;28;20049;-88
2023/04/29 02:57:46;;;;;;;10.57;4.28;;;;;;;10.59;46.17;100810.78;4988522;28;20047;-88
2023/04/29 03:00:12;;;;;;;9.45;4.25;;;;;;;10.63;45.87;100823.88;4989016;28;20531;-86
2023/04/29 03:02:37;;;;;;;9.82;4.40;;;;;;;10.56;45.84;100811.03;4996633;28;20041;-88
2023/04/29 03:05:03;;;;;;;12.23;5.13;;;;;;;10.44;46.33;100807.47;4998187;28;20046;-86
2023/04/29 03:07:30;;;;;;;14.60;4.85;;;;;;;10.51;46.43;100807.84;4997987;28;20030;-86
2023/04/29 03:09:55;;;;;;;6.80;3.97;;;;;;;10.61;45.99;100825.81;4994343;28;20038;-87
2023/04/29 03:12:21;;;;;;;14.48;4.95;;;;;;;10.52;46.15;100810.41;4996564;28;20076;-85
2023/04/29 03:14:46;;;;;;;14.63;4.40;;;;;;;10.55;46.05;100825.47;4996782;28;20104;-87
2023/04/29 03:17:12;;;;;;;11.52;6.47;;;;;;;10.59;46.18;100832.31;5020589;28;20030;-89
2023/04/29 03:19:38;;;;;;;10.07;4.60;;;;;;;10.55;45.82;100834.38;5024368;28;20034;-88
2023/04/29 03:22:03;;;;;;;9.00;4.25;;;;;;;10.46;46.08;100808.19;5016873;28;20044;-87
2023/04/29 03:24:28;;;;;;;6.72;4.72;;;;;;;10.54;46.60;100823.75;4996106;28;20506;-86
2023/04/29 03:26:54;;;;;;;9.48;4.45;;;;;;;10.50;46.17;100823.13;5014345;28;20049;-86
2023/04/29 03:29:19;;;;;;;11.32;4.88;;;;;;;10.50;46.41;100835.72;5014023;28;20017;-87
2023/04/29 03:31:45;;;;;;;15.07;6.22;;;;;;;10.47;46.89;100817.13;5014340;28;20036;-88
2023/04/29 03:34:14;;;;;;;20.17;7.65;;;;;;;10.51;46.29;100814.09;5018106;28;20026;-85
2023/04/29 03:36:39;;;;;;;11.88;5.25;;;;;;;10.62;46.17;100835.63;5014363;28;20037;-87
2023/04/29 03:39:05;;;;;;;8.85;5.18;;;;;;;10.61;46.31;100831.19;5015293;28;20615;-83
2023/04/29 03:41:30;;;;;;;9.27;4.13;;;;;;;10.55;46.50;100842.44;5027213;28;20038;-86
2023/04/29 03:43:59;;;;;;;10.00;4.85;;;;;;;10.56;46.08;100841.47;5029055;28;20030;-85
2023/04/29 03:46:26;;;;;;;12.40;5.63;;;;;;;10.57;46.26;100829.75;5017905;28;20029;-87
2023/04/29 03:48:52;;;;;;;13.82;5.80;;;;;;;10.52;46.55;100831.91;5019899;28;20500;-85
2023/04/29 03:51:17;;;;;;;14.88;4.53;;;;;;;10.57;46.34;100837.81;5008102;28;20117;-86
2023/04/29 03:53:43;;;;;;;12.48;4.65;;;;;;;10.56;46.80;100838.78;5000131;28;20472;-88
2023/04/29 03:56:08;;;;;;;19.05;5.50;;;;;;;10.46;46.31;100821.63;4998372;28;20030;-89
2023/04/29 03:58:34;;;;;;;15.88;5.40;;;;;;;10.49;46.84;100837.53;4996685;28;20097;-89
2023/04/29 04:01:00;;;;;;;14.50;4.70;;;;;;;10.53;46.42;100836.34;4995060;28;20222;-85
2023/04/29 04:03:27;;;;;;;12.07;5.70;;;;;;;10.56;46.31;100844.16;4997082;28;20037;-86
2023/04/29 04:05:52;;;;;;;9.40;4.93;;;;;;;10.64;46.62;100848.97;4994469;28;20034;-87
2023/04/29 04:08:17;;;;;;;9.52;5.68;;;;;;;10.69;46.23;100849.44;4999622;28;20042;-83
2023/04/29 04:10:43;;;;;;;8.40;4.93;;;;;;;10.69;46.29;100847.63;5001435;28;20098;-84
2023/04/29 04:13:08;;;;;;;24.48;5.80;;;;;;;10.77;46.07;100853.25;4994392;28;20480;-84
2023/04/29 04:15:34;;;;;;;11.40;5.60;;;;;;;10.79;46.29;100850.44;5012090;28;20457;-85
2023/04/29 04:18:00;;;;;;;25.00;5.72;;;;;;;10.87;45.86;100848.00;5017263;28;20022;-85
2023/04/29 04:20:25;;;;;;;19.20;5.03;;;;;;;10.82;45.80;100834.88;4994258;28;20041;-87
2023/04/29 04:22:53;;;;;;;14.52;5.18;;;;;;;10.83;46.11;100830.38;4994094;28;20057;-89
2023/04/29 04:25:19;;;;;;;11.55;5.82;;;;;;;10.95;45.94;100845.53;4993624;28;20030;-85
2023/04/29 04:27:44;;;;;;;19.23;4.72;;;;;;;11.06;45.71;100847.41;4995389;28;20029;-87
2023/04/29 04:30:10;;;;;;;15.80;5.50;;;;;;;11.11;45.49;100842.50;4993609;28;20065;-83
2023/04/29 04:32:36;;;;;;;8.63;4.47;;;;;;;11.08;45.53;100831.97;4994660;28;20034;-84
2023/04/29 04:35:02;;;;;;;11.60;5.82;;;;;;;11.19;45.05;100821.22;4993963;28;20034;-88
2023/04/29 04:37:27;;;;;;;21.00;5.43;;;;;;;11.32;45.35;100829.97;4999650;28;20084;-89
2023/04/29 04:39:53;;;;;;;13.27;5.43;;;;;;;11.30;44.99;100830.13;4996470;28;20033;-90
2023/04/29 04:42:18;;;;;;;16.73;5.57;;;;;;;11.43;44.52;100835.38;5007253;28;20038;-86
2023/04/29 04:44:43;;;;;;;12.30;6.20;;;;;;;11.47;44.57;100842.19;5006889;28;20110;-87
2023/04/29 04:47:10;;;;;;;10.77;5.15;;;;;;;11.55;44.12;100837.06;5014494;28;20029;-86
2023/04/29 04:49:36;;;;;;;8.82;4.75;;;;;;;11.63;44.13;100837.28;5012636;28;20042;-86
2023/04/29 04:52:01;;;;;;;28.65;5.95;;;;;;;11.68;44.02;100840.44;5013479;28;20039;-83
2023/04/29 04:54:26;;;;;;;16.85;5.78;;;;;;;11.79;44.07;100843.16;5009307;28;20034;-89
2023/04/29 04:56:52;;;;;;;85.10;11.48;;;;;;;11.70;44.14;100827.75;5007740;28;20054;-87
2023/04/29 04:59:17;;;;;;;14.65;5.05;;;;;;;12.05;44.00;100840.13;5011133;28;20027;-86
2023/04/29 05:01:43;;;;;;;93.53;10.18;;;;;;;12.07;43.48;100832.75;5022318;28;20034;-88
2023/04/29 05:04:09;;;;;;;15.07;4.80;;;;;;;12.22;43.13;100844.94;5013898;28;20034;-85
2023/04/29 05:06:34;;;;;;;7.90;4.53;;;;;;;12.34;42.45;100844.75;5027358;28;20050;-86
2023/04/29 05:09:00;;;;;;;11.13;4.85;;;;;;;12.32;42.46;100841.31;5015234;28;20031;-86
2023/04/29 05:11:25;;;;;;;13.02;4.47;;;;;;;12.15;42.72;100814.06;5013990;28;20030;-84
2023/04/29 05:13:51;;;;;;;22.13;5.70;;;;;;;12.46;42.61;100850.94;5007735;28;20049;-83
2023/04/29 05:16:17;;;;;;;14.27;4.90;;;;;;;12.25;42.33;100818.56;5006914;28;20113;-84
2023/04/29 05:18:44;;;;;;;34.55;5.18;;;;;;;12.32;43.21;100841.31;5001199;28;20030;-86
2023/04/29 05:21:10;;;;;;;30.92;6.47;;;;;;;12.50;42.73;100858.66;5005937;28;20026;-86
2023/04/29 05:23:36;;;;;;;10.88;3.85;;;;;;;12.63;42.41;100852.19;5007117;28;20050;-83
2023/04/29 05:26:01;;;;;;;8.75;5.00;;;;;;;12.69;42.33;100854.38;5012077;28;20042;-93
2023/04/29 05:28:26;;;;;;;15.68;7.65;;;;;;;12.59;42.39;100838.09;5010436;28;20026;-89
2023/04/29 05:30:52;;;;;;;14.30;5.05;;;;;;;12.84;42.18;100851.16;4994409;28;20056;-87
2023/04/29 05:33:19;;;;;;;16.23;4.95;;;;;;;12.90;41.99;100847.91;4995458;28;20546;-90
2023/04/29 05:35:45;;;;;;;15.88;5.05;;;;;;;13.05;41.77;100853.84;4993072;28;20022;-89
2023/04/29 05:38:10;;;;;;;9.60;4.40;;;;;;;13.06;41.45;100837.50;4994777;28;20022;-86
2023/04/29 05:40:37;;;;;;;14.88;5.18;;;;;;;13.17;41.58;100855.50;4992918;28;20026;-86
2023/04/29 05:43:02;;;;;;;10.45;4.65;;;;;;;13.34;41.64;100851.28;4991310;28;20416;-87
2023/04/29 05:45:27;;;;;;;16.10;5.13;;;;;;;13.44;41.26;100841.38;4993959;28;20022;-91
2023/04/29 05:47:53;;;;;;;29.88;13.30;;;;;;;13.57;40.49;100847.38;4992628;28;20548;-88
2023/04/29 05:50:18;;;;;;;16.40;5.70;;;;;;;13.62;40.50;100845.09;4992034;28;20481;-87
2023/04/29 05:52:44;;;;;;;12.77;4.30;;;;;;;13.57;40.25;100823.06;4992346;28;20468;-83
2023/04/29 05:55:11;;;;;;;15.95;4.43;;;;;;;13.69;39.88;100835.47;4993563;28;20511;-83
2023/04/29 05:57:36;;;;;;;43.08;14.52;;;;;;;13.81;39.66;100823.53;4995743;28;20501;-82
2023/04/29 06:00:03;;;;;;;7.28;4.45;;;;;;;13.82;39.09;100822.50;4995487;28;20022;-85
2023/04/29 06:02:28;;;;;;;6.38;3.85;;;;;;;13.94;39.14;100824.06;4996374;28;20038;-88
2023/04/29 06:04:54;;;;;;;15.20;3.90;;;;;;;13.90;39.00;100800.19;4999735;28;20105;-84
2023/04/29 06:07:20;;;;;;;23.30;4.47;;;;;;;14.08;38.54;100817.41;5002160;28;20500;-86
2023/04/29 06:09:45;;;;;;;23.35;4.72;;;;;;;14.16;37.85;100828.34;5007320;28;20022;-88
2023/04/29 06:12:11;;;;;;;16.85;4.50;;;;;;;14.22;38.25;100824.25;5000641;28;20169;-88
2023/04/29 06:14:36;;;;;;;13.35;4.30;;;;;;;14.33;38.23;100824.13;4994808;28;20036;-89
2023/04/29 06:17:02;;;;;;;23.50;4.82;;;;;;;14.35;38.04;100822.13;4992957;28;20029;-90
2023/04/29 06:19:28;;;;;;;33.90;6.63;;;;;;;14.45;38.18;100828.38;4994425;28;20168;-90
2023/04/29 06:21:54;;;;;;;16.38;3.80;;;;;;;14.60;36.95;100838.63;4998713;28;20026;-90
2023/04/29 06:24:19;;;;;;;16.40;3.88;;;;;;;14.56;37.88;100820.09;4992812;28;20555;-90
2023/04/29 06:26:45;;;;;;;23.52;4.38;;;;;;;14.70;37.55;100816.94;4992545;28;20034;-91
2023/04/29 06:29:11;;;;;;;19.67;4.65;;;;;;;14.86;36.85;100819.03;4990915;28;20031;-92
2023/04/29 06:31:37;;;;;;;35.60;11.05;;;;;;;14.82;35.93;100814.91;4995720;28;20030;-90
2023/04/29 06:34:02;;;;;;;24.65;5.45;;;;;;;14.85;36.13;100820.88;4991678;28;20496;-88
2023/04/29 06:36:28;;;;;;;13.93;4.72;;;;;;;14.81;36.78;100819.47;5008547;28;20048;-90
2023/04/29 06:38:53;;;;;;;11.18;4.07;;;;;;;14.90;36.14;100834.81;4996673;28;20690;-89
2023/04/29 06:41:19;;;;;;;20.92;5.88;;;;;;;14.75;36.57;100816.47;4996161;28;20026;-90
2023/04/29 06:43:44;;;;;;;8.18;4.05;;;;;;;14.97;36.27;100835.94;4997990;28;20501;-89
2023/04/29 06:46:12;;;;;;;30.60;6.57;;;;;;;14.78;35.64;100800.78;5004485;28;20117;-90
2023/04/29 06:48:38;;;;;;;12.07;4.82;;;;;;;14.94;35.83;100819.13;5006400;28;20121;-90
2023/04/29 06:51:03;;;;;;;18.33;5.05;;;;;;;15.05;36.00;100818.94;5014689;28;20125;-90
2023/04/29 06:53:29;;;;;;;13.15;3.72;;;;;;;15.09;35.02;100829.34;5017871;28;20038;-89
2023/04/29 06:55:55;;;;;;;9.07;3.53;;;;;;;14.99;35.23;100806.00;5019552;28;20022;-89
2023/04/29 06:58:20;;;;;;;39.95;7.97;;;;;;;15.06;35.56;100818.81;5016406;28;20018;-90
2023/04/29 07:00:47;;;;;;;9.68;3.42;;;;;;;15.17;35.57;100826.72;5020070;28;20046;-90
2023/04/29 07:03:13;;;;;;;12.57;4.25;;;;;;;15.27;35.19;100815.84;5014601;28;20017;-90
2023/04/29 07:05:40;;;;;;;28.73;5.05;;;;;;;15.20;35.33;100826.44;5018528;28;20046;-89
2023/04/29 07:08:07;;;;;;;17.98;5.10;;;;;;;15.31;35.32;100832.66;5012834;28;20046;-90
2023/04/29 07:10:32;;;;;;;11.13;4.40;;;;;;;15.21;35.56;100821.88;5005978;28;20026;-91
2023/04/29 07:12:59;;;;;;;19.77;4.32;;;;;;;15.15;35.35;100812.50;5011659;28;20045;-90
2023/04/29 07:15:26;;;;;;;13.90;4.28;;;;;;;15.36;34.99;100828.50;5012219;28;20069;-91
2023/04/29 07:17:51;;;;;;;51.65;8.40;;;;;;;15.40;35.11;100821.78;5001653;28;20041;-90
2023/04/29 07:20:17;;;;;;;15.05;3.85;;;;;;;15.29;34.47;100815.72;4996387;28;20042;-91
2023/04/29 07:22:42;;;;;;;10.57;4.43;;;;;;;15.27;34.12;100808.56;4993145;28;20526;-91
2023/04/29 07:25:09;;;;;;;28.98;4.60;;;;;;;15.40;33.83;100831.75;4992813;28;20034;-91
2023/04/29 07:27:36;;;;;;;10.38;3.53;;;;;;;15.30;33.39;100831.81;4994599;28;20125;-89
2023/04/29 07:30:03;;;;;;;17.42;4.50;;;;;;;15.25;33.08;100824.16;4992219;28;20042;-90
2023/04/29 07:32:30;;;;;;;14.38;4.00;;;;;;;15.34;33.15;100821.53;4992268;28;20027;-90
2023/04/29 07:34:56;;;;;;;23.20;5.63;;;;;;;15.42;33.64;100835.16;4993109;28;20061;-90
2023/04/29 07:37:22;;;;;;;15.07;4.03;;;;;;;15.42;33.22;100822.47;5006302;28;20058;-90
2023/04/29 07:39:47;;;;;;;19.17;4.55;;;;;;;15.48;33.75;100808.34;4994490;28;20042;-91
2023/04/29 07:42:13;;;;;;;19.17;4.80;;;;;;;15.69;33.41;100822.47;4998161;28;20027;-90
2023/04/29 07:44:38;;;;;;;10.25;4.35;;;;;;;15.73;32.70;100821.19;4995014;28;20046;-91
2023/04/29 07:47:04;;;;;;;20.27;4.47;;;;;;;15.78;32.92;100821.56;4994385;28;20030;-90
2023/04/29 07:49:30;;;;;;;32.83;5.20;;;;;;;15.82;32.58;100830.25;4991853;28;20125;-91
2023/04/29 07:51:55;;;;;;;7.68;3.65;;;;;;;15.77;31.71;100822.59;4994688;28;20041;-89
2023/04/29 07:54:21;;;;;;;7.53;3.83;;;;;;;15.77;32.00;100802.75;4999950;28;20424;-91
2023/04/29 07:56:47;;;;;;;19.35;3.17;;;;;;;15.77;32.44;100808.16;4999140;28;20051;-91
2023/04/29 07:59:12;;;;;;;45.50;6.03;;;;;;;15.70;32.81;100804.34;5002810;28;20029;-91
2023/04/29 08:01:39;;;;;;;13.68;4.57;;;;;;;15.87;33.03;100816.25;5017951;28;20030;-90
2023/04/29 08:04:06;;;;;;;19.83;4.82;;;;;;;15.89;32.26;100809.66;5016618;28;20090;-91
2023/04/29 08:06:31;;;;;;;13.30;4.43;;;;;;;15.95;32.29;100811.75;4992947;28;20023;-90
2023/04/29 08:09:00;;;;;;;4.63;2.90;;;;;;;15.97;31.93;100793.44;5006867;28;20018;-91
2023/04/29 08:11:27;;;;;;;14.20;3.63;;;;;;;16.10;32.50;100798.47;4997084;28;20125;-91
2023/04/29 08:13:52;;;;;;;14.20;3.72;;;;;;;16.20;32.52;100813.69;5019114;28;20050;-90
2023/04/29 08:16:18;;;;;;;11.02;3.60;;;;;;;16.17;32.63;100795.00;4993276;28;20074;-90
2023/04/29 08:18:43;;;;;;;8.88;3.45;;;;;;;16.28;33.14;100816.44;5008142;28;20133;-83
2023/04/29 08:21:10;;;;;;;22.00;3.90;;;;;;;16.26;33.16;100791.34;4992113;28;20404;-88
2023/04/29 08:23:39;;;;;;;15.02;4.13;;;;;;;16.13;34.23;100809.88;4992469;28;20441;-83
2023/04/29 08:26:04;;;;;;;9.02;4.03;;;;;;;16.23;33.75;100798.94;4992618;28;20030;-82
2023/04/29 08:28:30;;;;;;;34.15;6.53;;;;;;;16.22;34.37;100776.38;4994034;28;20470;-84
2023/04/29 08:30:56;;;;;;;10.80;3.58;;;;;;;16.50;33.58;100795.22;4992372;28;20030;-85
2023/04/29 08:33:22;;;;;;;9.77;3.13;;;;;;;16.56;33.97;100790.06;4992410;28;20023;-87
2023/04/29 08:35:48;;;;;;;14.73;7.47;;;;;;;16.64;34.19;100781.09;4992137;28;20038;-86
2023/04/29 08:38:13;;;;;;;17.92;4.90;;;;;;;16.75;34.28;100784.41;4993444;28;20080;-86
2023/04/29 08:40:44;;;;;;;9.52;4.00;;;;;;;16.94;34.09;100777.88;4993374;28;20046;-81
2023/04/29 08:43:11;;;;;;;15.77;4.18;;;;;;;17.06;33.99;100765.75;4990445;28;20464;-81
2023/04/29 08:45:36;;;;;;;12.65;3.70;;;;;;;17.26;33.68;100778.03;4991753;28;20507;-82
2023/04/29 08:48:02;;;;;;;22.88;5.00;;;;;;;17.39;32.88;100786.59;4993141;28;20026;-84
2023/04/29 08:50:30;;;;;;;10.73;3.65;;;;;;;17.39;32.26;100786.59;4994267;28;20026;-84
2023/04/29 08:52:56;;;;;;;20.00;4.25;;;;;;;17.30;32.66;100763.13;4994173;28;20146;-85
2023/04/29 08:55:22;;;;;;;18.35;3.58;;;;;;;17.17;32.78;100740.97;4991933;28;20113;-83
2023/04/29 08:57:49;;;;;;;14.38;3.80;;;;;;;17.35;33.42;100768.91;5004478;28;20545;-85
2023/04/29 09:00:15;;;;;;;7.05;3.30;;;;;;;17.56;32.52;100762.16;4998765;28;20022;-84
2023/04/29 09:02:48;;;;;;;7.18;3.90;;;;;;;17.57;32.47;100753.88;4994597;28;20033;-86
2023/04/29 09:05:13;;;;;;;;;;;;;;;17.62;32.03;100761.50;4992956;28;20102;-84
2023/04/29 09:07:40;;;;;;;9.30;3.60;;;;;;;17.56;32.17;100757.59;4995045;28;19964;-86
2023/04/29 09:10:07;;;;;;;11.75;4.00;;;;;;;17.46;31.63;100745.97;4999892;28;20045;-86
2023/04/29 09:12:32;;;;;;;16.65;3.50;;;;;;;17.51;31.86;100742.75;5008952;28;20031;-84
2023/04/29 09:14:58;;;;;;;33.13;8.40;;;;;;;17.58;32.27;100752.84;4989854;28;20484;-82
2023/04/29 09:17:39;;;;;;;20.63;4.45;;;;;;;17.62;32.22;100759.63;4991149;28;20056;-83
2023/04/29 09:20:20;;;;;;;15.93;4.32;;;;;;;17.53;32.05;100747.00;4991961;28;20045;-84
2023/04/29 09:22:50;;;;;;;20.67;4.28;;;;;;;17.46;32.26;100745.97;4990571;28;20046;-83
2023/04/29 09:25:16;;;;;;;11.20;4.25;;;;;;;17.55;32.53;100741.47;4993917;28;20045;-90
2023/04/29 09:27:42;;;;;;;10.60;3.85;;;;;;;17.66;32.08;100738.41;4998971;28;20048;-95
2023/04/29 09:30:28;;;;;;;13.80;4.03;;;;;;;17.77;32.30;100738.06;5083234;23;20122;-94
2023/04/29 09:33:15;;;;;;;16.67;4.30;;;;;;;17.59;32.07;100750.97;5003757;28;20041;-96
2023/04/29 09:35:41;;;;;;;14.65;3.95;;;;;;;17.39;32.10;100721.34;5001262;28;20038;-93
2023/04/29 09:38:14;;;;;;;20.33;5.72;;;;;;;17.56;32.71;100724.09;5001692;28;20502;-95
2023/04/29 09:40:41;;;;;;;15.52;3.95;;;;;;;17.78;32.91;100713.44;5001351;28;20037;-95
2023/04/29 09:43:17;;;;;;;8.23;3.60;;;;;;;17.87;32.35;100711.56;5001474;28;20026;-94
2023/04/29 09:45:45;;;;;;;10.20;3.75;;;;;;;18.00;31.79;100709.19;5004624;28;20072;-96
2023/04/29 09:48:12;;;;;;;19.23;4.18;;;;;;;18.06;32.13;100721.25;5015006;28;20041;-95
2023/04/29 09:50:39;;;;;;;15.73;4.45;;;;;;;18.08;32.01;100692.84;5025892;28;20029;-94
2023/04/29 09:53:09;;;;;;;6.95;3.42;;;;;;;18.13;31.66;100690.47;5037552;28;20032;-93
2023/04/29 09:55:53;;;;;;;13.13;4.30;;;;;;;18.29;31.69;100690.41;5040159;28;20025;-93
2023/04/29 09:58:39;;;;;;;10.98;3.65;;;;;;;18.38;31.73;100688.53;5035685;28;20063;-96
2023/04/29 10:01:05;;;;;;;12.30;3.55;;;;;;;18.42;30.96;100677.13;5025259;28;20025;-94
2023/04/29 10:03:36;;;;;;;10.73;3.78;;;;;;;18.54;30.57;100695.84;5033504;28;20021;-94
2023/04/29 10:06:04;;;;;;;7.43;3.22;;;;;;;18.38;30.45;100683.94;5029741;28;20033;-94
2023/04/29 10:08:31;;;;;;;14.55;5.20;;;;;;;18.41;30.82;100689.03;5023079;28;20475;-94
2023/04/29 10:11:03;;;;;;;10.40;4.00;;;;;;;18.58;30.85;100684.44;5022193;28;20034;-94
2023/04/29 10:13:29;;;;;;;;;;;;;;;18.45;31.14;100676.78;5033388;28;20125;-91
2023/04/29 10:16:28;;;;;;;18.20;3.47;;;;;;;18.48;31.39;100668.25;5033464;28;19917;-91
2023/04/29 10:18:55;;;;;;;12.07;3.63;;;;;;;18.60;30.91;100678.81;5004857;28;20037;-86
2023/04/29 10:21:30;;;;;;;16.88;5.20;;;;;;;18.71;31.33;100683.88;5006826;28;20077;-85
2023/04/29 10:23:57;;;;;;;7.35;3.85;;;;;;;18.59;31.20;100663.50;5006660;28;20037;-85
2023/04/29 10:26:28;;;;;;;9.27;3.42;;;;;;;18.57;31.16;100660.94;5007437;28;20026;-88
2023/04/29 10:28:58;;;;;;;10.07;3.63;;;;;;;18.61;31.09;100656.00;4994255;28;20490;-88
2023/04/29 10:31:29;;;;;;;8.05;3.30;;;;;;;18.80;30.63;100663.75;4990238;28;20517;-86
2023/04/29 10:33:56;;;;;;;10.32;3.75;;;;;;;18.96;30.51;100658.22;5003408;28;20050;-86
2023/04/29 10:36:24;;;;;;;29.80;5.63;;;;;;;18.99;30.63;100657.84;5001188;28;20084;-86
2023/04/29 10:38:55;;;;;;;7.55;3.40;;;;;;;19.01;30.80;100653.94;4999124;28;20065;-87
2023/04/29 10:41:24;;;;;;;9.25;3.47;;;;;;;19.29;30.36;100667.94;4995635;28;20023;-86
2023/04/29 10:43:53;;;;;;;10.77;3.85;;;;;;;19.28;30.14;100633.50;5002710;28;20485;-86
2023/04/29 10:46:20;;;;;;;11.00;4.47;;;;;;;19.49;30.31;100647.34;5003524;28;20035;-85
2023/04/29 10:48:47;;;;;;;16.42;3.70;;;;;;;19.62;29.65;100651.34;5000038;28;20404;-86
2023/04/29 10:51:27;;;;;;;19.77;3.97;;;;;;;19.70;29.82;100663.03;5004979;28;20086;-84
2023/04/29 10:54:12;;;;;;;13.13;5.07;;;;;;;19.70;30.36;100651.28;5006539;28;20053;-86
2023/04/29 10:56:49;;;;;;;21.05;4.93;;;;;;;19.79;30.23;100656.50;4995010;28;20023;-86
2023/04/29 10:59:18;;;;;;;36.58;7.07;;;;;;;19.90;31.01;100649.75;4991981;28;20034;-87
2023/04/29 11:01:44;;;;;;;20.70;4.05;;;;;;;20.02;30.05;100643.66;4992858;28;20019;-87
2023/04/29 11:04:10;;;;;;;17.45;3.92;;;;;;;20.07;30.10;100635.75;4999695;28;20058;-87
2023/04/29 11:06:35;;;;;;;21.15;4.03;;;;;;;20.18;29.98;100630.88;5005597;28;20034;-86
2023/04/29 11:09:28;;;;;;;7.88;2.78;;;;;;;20.34;29.83;100620.66;5006534;28;20026;-85
2023/04/29 11:12:02;;;;;;;;;;;;;;;20.45;29.32;100633.00;4957574;29;20478;-85
2023/04/29 11:14:35;;;;;;;16.83;6.82;;;;;;;20.46;28.88;100619.13;4955105;29;19982;-84
2023/04/29 11:17:08;;;;;;;38.20;9.30;;;;;;;20.46;29.09;100613.66;4952777;29;20065;-86
2023/04/29 11:19:35;;;;;;;22.10;7.18;;;;;;;20.24;29.43;100620.06;4951040;29;20549;-87
2023/04/29 11:22:32;;;;;;;32.38;6.20;;;;;;;20.39;29.05;100611.91;4952594;28;20032;-87